LFGJ/DLE METAR and TAF weather

Enter ICAO airport designator
Station Type Date Time Source
LFGJ METAR 2021/05/16 00:30 UTC NOAA

LFGJ 160030Z AUTO 19008KT CAVOK 10/09 Q1009


Station Type Date Time Source
LFGJ Decoded METAR 2021/05/16 00:30 UTC NOAA

Dole Tavaux, France (LFGJ) 47-02-34N 005-26-06E
May 15, 2021 - 08:30 PM EDT / 2021.05.16 0030 UTC
Wind: from the S (190 degrees) at 9 MPH (8 KT):0
Visibility: greater than 7 mile(s):0
Temperature: 50 F (10 C)
Dew Point: 48 F (9 C)
Relative Humidity: 93%
Pressure (altimeter): 29.80 in. Hg (1009 hPa)
ob: LFGJ 160030Z AUTO 19008KT CAVOK 10/09 Q1009
cycle: 0

Station Type Date Time Source
LFGJ TAF 2020/06/22 09:21 UTC NOAA

TAF LFGJ 220800Z 2209/2221 01008KT 9999 FEW035 BKN053
BECMG 2212/2215 CAVOK

Example: see airport list